createdAt,value
2023-07-27T00:00:02.113Z,65.78
2023-07-27T00:05:05.946Z,63.33
2023-07-27T00:10:08.970Z,60.41
2023-07-27T00:15:11.875Z,57.87
2023-07-27T00:20:14.841Z,58.98
2023-07-27T00:25:17.780Z,61.45
2023-07-27T00:30:20.654Z,66.15
2023-07-27T00:35:23.610Z,63.72
2023-07-27T00:40:26.536Z,61.01
2023-07-27T00:45:30.106Z,59.14
2023-07-27T00:50:37.292Z,58.19
2023-07-27T00:55:40.411Z,60.51
2023-07-27T01:00:44.185Z,65.13
2023-07-27T01:05:49.940Z,63.70
2023-07-27T01:11:01.752Z,60.73
2023-07-27T01:16:21.977Z,57.91
2023-07-27T01:21:35.436Z,58.42
2023-07-27T01:26:47.948Z,62.95
2023-07-27T01:31:53.369Z,64.30
2023-07-27T01:37:02.654Z,61.82
2023-07-27T01:42:06.351Z,59.57
2023-07-27T01:47:10.799Z,59.56
2023-07-27T01:52:16.980Z,62.46
2023-07-27T01:57:20.486Z,64.53
2023-07-27T02:02:25.340Z,61.05
2023-07-27T02:07:28.342Z,60.93
2023-07-27T02:12:43.452Z,59.51
2023-07-27T02:18:00.222Z,59.35
2023-07-27T02:23:05.826Z,63.56
2023-07-27T02:28:12.066Z,63.14
2023-07-27T02:33:14.928Z,61.66
2023-07-27T02:38:17.833Z,60.45
2023-07-27T02:43:20.734Z,59.58
2023-07-27T02:48:24.218Z,57.59
2023-07-27T02:53:27.134Z,59.37
2023-07-27T02:58:30.769Z,61.57
2023-07-27T03:03:34.059Z,66.17
2023-07-27T03:08:38.314Z,64.78
2023-07-27T03:13:41.227Z,61.68
2023-07-27T03:18:44.157Z,59.48
2023-07-27T03:23:50.158Z,58.62
2023-07-27T03:28:53.075Z,60.07
2023-07-27T03:33:55.945Z,61.59
2023-07-27T03:38:58.787Z,67.18
2023-07-27T03:44:01.613Z,65.88
2023-07-27T03:49:04.432Z,62.43
2023-07-27T03:54:07.344Z,60.59
2023-07-27T03:59:10.639Z,57.90
2023-07-27T04:04:13.613Z,59.88
2023-07-27T04:09:16.489Z,64.85
2023-07-27T04:14:19.413Z,62.29
2023-07-27T04:19:22.379Z,60.08
2023-07-27T04:24:25.294Z,57.37
2023-07-27T04:29:28.207Z,59.44
2023-07-27T04:34:31.039Z,62.27
2023-07-27T04:39:33.922Z,66.23
2023-07-27T04:44:36.781Z,62.83
2023-07-27T04:49:39.642Z,60.53
2023-07-27T04:54:42.504Z,58.29
2023-07-27T04:59:45.371Z,59.16
2023-07-27T05:04:51.914Z,61.88
2023-07-27T05:09:54.960Z,66.35
2023-07-27T05:14:57.800Z,63.49
2023-07-27T05:20:02.963Z,60.74
2023-07-27T05:25:06.931Z,58.29
2023-07-27T05:30:10.361Z,59.64
2023-07-27T05:35:13.234Z,63.32
2023-07-27T05:40:17.313Z,65.39
2023-07-27T05:45:20.508Z,62.06
2023-07-27T05:50:23.803Z,59.70
2023-07-27T05:55:26.781Z,58.33
2023-07-27T06:00:29.638Z,61.04
2023-07-27T06:05:33.989Z,65.28
2023-07-27T06:10:37.024Z,62.87
2023-07-27T06:15:39.922Z,58.96
2023-07-27T06:20:42.829Z,57.78
2023-07-27T06:25:46.554Z,59.49
2023-07-27T06:30:49.858Z,62.92
2023-07-27T06:35:52.756Z,57.66
2023-07-27T06:40:55.596Z,58.79
2023-07-27T06:45:58.540Z,59.89
2023-07-27T06:51:01.427Z,61.41
2023-07-27T06:56:05.672Z,62.26
2023-07-27T07:01:08.605Z,64.29
2023-07-27T07:06:11.951Z,59.03
2023-07-27T07:11:15.269Z,57.34
2023-07-27T07:16:19.498Z,58.96
2023-07-27T07:21:22.411Z,60.36
2023-07-27T07:26:25.608Z,61.34
2023-07-27T07:31:28.996Z,62.16
2023-07-27T07:36:32.317Z,64.86
2023-07-27T07:41:36.073Z,61.32
2023-07-27T07:46:38.998Z,55.39
2023-07-27T07:51:41.926Z,56.55
2023-07-27T07:56:45.337Z,59.15
2023-07-27T08:01:48.247Z,61.47
2023-07-27T08:06:51.521Z,64.19
2023-07-27T08:11:55.402Z,61.70
2023-07-27T08:16:58.299Z,56.78
2023-07-27T08:22:01.326Z,56.77
2023-07-27T08:27:06.374Z,57.86
2023-07-27T08:32:09.337Z,59.48
2023-07-27T08:37:12.208Z,60.03
2023-07-27T08:42:20.836Z,61.36
2023-07-27T08:47:24.676Z,64.25
2023-07-27T08:52:29.296Z,58.14
2023-07-27T08:57:32.689Z,55.58
2023-07-27T09:02:36.059Z,57.76
2023-07-27T09:07:39.149Z,59.99
2023-07-27T09:12:42.846Z,60.64
2023-07-27T09:17:45.718Z,60.65
2023-07-27T09:22:50.097Z,62.29
2023-07-27T09:27:55.975Z,58.20
2023-07-27T09:33:01.141Z,57.78
2023-07-27T09:38:04.132Z,58.45
2023-07-27T09:43:10.133Z,59.03
2023-07-27T09:48:14.205Z,61.20
2023-07-27T09:53:19.976Z,61.95
2023-07-27T09:58:26.559Z,59.52
2023-07-27T10:03:29.981Z,56.88
2023-07-27T10:08:36.722Z,56.70
2023-07-27T10:13:43.373Z,57.96
2023-07-27T10:18:48.311Z,58.21
2023-07-27T10:24:05.244Z,59.08
2023-07-27T10:29:17.398Z,59.59
2023-07-27T10:34:26.215Z,58.47
2023-07-27T10:39:48.576Z,59.30
2023-07-27T10:44:59.754Z,59.93
2023-07-27T10:50:04.826Z,58.04
2023-07-27T10:55:08.840Z,58.19
2023-07-27T11:00:12.762Z,58.03
2023-07-27T11:05:15.781Z,56.87
2023-07-27T11:10:27.016Z,56.66
2023-07-27T11:15:31.057Z,57.22
2023-07-27T11:20:34.536Z,57.77
2023-07-27T11:25:40.194Z,56.99
2023-07-27T11:30:43.111Z,54.75
2023-07-27T11:35:48.346Z,53.80
2023-07-27T11:41:07.770Z,55.04
2023-07-27T11:46:17.953Z,53.56
2023-07-27T11:51:20.839Z,51.57
2023-07-27T11:56:23.688Z,52.91
2023-07-27T12:01:26.761Z,52.54
2023-07-27T12:06:33.059Z,53.20
2023-07-27T12:21:55.319Z,49.18
2023-07-27T12:47:24.657Z,50.64
2023-07-27T12:52:27.408Z,49.46
2023-07-27T12:57:30.270Z,48.93
2023-07-27T13:02:33.186Z,50.74
2023-07-27T13:07:36.002Z,50.10
2023-07-27T13:12:40.203Z,50.59
2023-07-27T13:17:43.100Z,51.97
2023-07-27T13:22:45.969Z,50.75
2023-07-27T13:27:49.966Z,51.31
2023-07-27T13:32:52.888Z,50.99
2023-07-27T13:37:55.693Z,50.79
2023-07-27T13:42:58.713Z,50.93
2023-07-27T13:48:09.513Z,50.71
2023-07-27T13:53:14.414Z,50.37
2023-07-27T13:58:18.806Z,50.82
2023-07-27T14:03:22.914Z,51.41
2023-07-27T14:08:26.502Z,50.72
2023-07-27T14:13:34.466Z,51.69
2023-07-27T14:18:37.840Z,51.88
2023-07-27T14:23:41.632Z,52.03
2023-07-27T14:28:44.966Z,52.13
2023-07-27T14:33:48.286Z,52.14
2023-07-27T14:39:12.216Z,51.96
2023-07-27T14:49:23.933Z,50.88
2023-07-27T14:54:27.588Z,50.90
2023-07-27T14:59:43.590Z,50.98
2023-07-27T15:09:55.551Z,49.73
2023-07-27T15:14:58.400Z,50.22
2023-07-27T15:20:01.480Z,50.93
2023-07-27T15:25:04.938Z,51.27
2023-07-27T15:30:08.952Z,51.96
2023-07-27T15:35:12.096Z,52.29
2023-07-27T15:40:15.075Z,53.24
2023-07-27T15:45:19.427Z,52.99
2023-07-27T15:50:25.074Z,53.15
2023-07-27T15:55:28.021Z,53.41
2023-07-27T16:00:30.987Z,52.93
2023-07-27T16:05:37.032Z,53.18
2023-07-27T16:10:44.172Z,52.96
2023-07-27T16:15:47.978Z,53.61
2023-07-27T16:20:51.143Z,53.56
2023-07-27T16:26:06.665Z,53.90
2023-07-27T16:31:10.333Z,54.41
2023-07-27T16:36:17.182Z,54.54
2023-07-27T16:41:20.422Z,53.73
2023-07-27T16:46:23.994Z,54.00
2023-07-27T16:51:29.270Z,54.36
2023-07-27T16:56:32.390Z,54.69
2023-07-27T17:01:35.536Z,54.62
2023-07-27T17:06:38.563Z,54.59
2023-07-27T17:11:41.621Z,54.90
2023-07-27T17:16:45.440Z,55.93
2023-07-27T17:21:50.269Z,56.30
2023-07-27T17:26:53.112Z,57.37
2023-07-27T17:32:01.818Z,58.00
2023-07-27T17:37:05.123Z,59.21
2023-07-27T17:42:08.490Z,59.97
2023-07-27T17:47:11.407Z,60.50
2023-07-27T17:52:14.320Z,60.61
2023-07-27T17:57:17.241Z,61.26
2023-07-27T18:02:20.294Z,62.15
2023-07-27T18:07:23.190Z,66.62
2023-07-27T18:12:26.506Z,64.80
2023-07-27T18:17:34.305Z,59.20
2023-07-27T18:22:39.874Z,55.07
2023-07-27T18:27:44.095Z,56.15
2023-07-27T18:32:48.367Z,57.68
2023-07-27T18:37:51.379Z,58.98
2023-07-27T18:42:54.296Z,59.80
2023-07-27T18:47:57.192Z,60.95
2023-07-27T18:53:00.028Z,61.75
2023-07-27T18:58:03.329Z,65.31
2023-07-27T19:03:07.190Z,62.90
2023-07-27T19:08:10.101Z,57.14
2023-07-27T19:13:13.468Z,57.13
2023-07-27T19:18:18.019Z,58.62
2023-07-27T19:23:20.882Z,59.78
2023-07-27T19:28:23.829Z,60.82
2023-07-27T19:33:26.661Z,61.80
2023-07-27T19:38:29.489Z,62.31
2023-07-27T19:43:32.327Z,66.09
2023-07-27T19:48:41.226Z,62.33
2023-07-27T19:53:51.960Z,57.38
2023-07-27T19:58:54.867Z,56.02
2023-07-27T20:03:57.810Z,57.75
2023-07-27T20:09:00.752Z,58.88
2023-07-27T20:14:03.704Z,60.07
2023-07-27T20:19:07.831Z,60.78
2023-07-27T20:24:16.713Z,61.93
2023-07-27T20:29:22.687Z,65.84
2023-07-27T20:34:28.157Z,62.44
2023-07-27T20:39:31.173Z,57.38
2023-07-27T20:44:34.060Z,56.25
2023-07-27T20:49:37.561Z,57.72
2023-07-27T20:54:40.450Z,58.99
2023-07-27T20:59:43.299Z,60.12
2023-07-27T21:04:46.195Z,61.30
2023-07-27T21:09:49.775Z,62.24
2023-07-27T21:14:54.380Z,66.11
2023-07-27T21:19:57.307Z,63.38
2023-07-27T21:25:02.785Z,58.34
2023-07-27T21:30:09.272Z,55.53
2023-07-27T21:35:15.337Z,57.24
2023-07-27T21:40:18.220Z,59.09
2023-07-27T21:45:21.170Z,60.29
2023-07-27T21:50:24.116Z,61.56
2023-07-27T21:55:27.398Z,65.57
2023-07-27T22:00:30.172Z,63.69
2023-07-27T22:05:32.969Z,59.91
2023-07-27T22:10:35.778Z,56.30
2023-07-27T22:15:38.721Z,57.36
2023-07-27T22:20:44.822Z,58.98
2023-07-27T22:25:47.970Z,60.21
2023-07-27T22:30:50.845Z,61.27
2023-07-27T22:35:53.708Z,65.26
2023-07-27T22:40:59.359Z,63.29
2023-07-27T22:46:02.241Z,59.22
2023-07-27T22:51:05.110Z,56.46
2023-07-27T22:56:08.117Z,58.18
2023-07-27T23:01:16.473Z,59.57
2023-07-27T23:06:19.349Z,61.26
2023-07-27T23:11:22.920Z,62.50
2023-07-27T23:16:25.776Z,66.52
2023-07-27T23:21:28.716Z,62.20
2023-07-27T23:26:31.515Z,58.15
2023-07-27T23:31:34.420Z,56.84
2023-07-27T23:36:37.417Z,58.44
2023-07-27T23:41:40.373Z,59.70
2023-07-27T23:46:43.313Z,60.36
2023-07-27T23:51:46.177Z,61.33
2023-07-27T23:56:49.032Z,64.98
